sensor_id;sensor_type;location;lat;lon;timestamp;P1;durP1;ratioP1;P2;durP2;ratioP2
2480;SDS011;57396;48.742;9.128;2023-07-20T00:01:34;5.07;;;2.03;;
2480;SDS011;57396;48.742;9.128;2023-07-20T00:04:00;2.67;;;2.37;;
2480;SDS011;57396;48.742;9.128;2023-07-20T00:06:25;5.97;;;2.30;;
2480;SDS011;57396;48.742;9.128;2023-07-20T00:08:53;2.30;;;2.03;;
2480;SDS011;57396;48.742;9.128;2023-07-20T00:11:19;2.20;;;1.73;;
2480;SDS011;57396;48.742;9.128;2023-07-20T00:13:44;2.77;;;2.10;;
2480;SDS011;57396;48.742;9.128;2023-07-20T00:16:10;2.60;;;1.93;;
2480;SDS011;57396;48.742;9.128;2023-07-20T00:18:35;2.40;;;2.20;;
2480;SDS011;57396;48.742;9.128;2023-07-20T00:21:01;3.57;;;2.33;;
2480;SDS011;57396;48.742;9.128;2023-07-20T00:23:26;3.70;;;2.13;;
2480;SDS011;57396;48.742;9.128;2023-07-20T00:25:52;3.10;;;2.20;;
2480;SDS011;57396;48.742;9.128;2023-07-20T00:28:18;3.83;;;2.00;;
2480;SDS011;57396;48.742;9.128;2023-07-20T00:30:43;4.60;;;2.33;;
2480;SDS011;57396;48.742;9.128;2023-07-20T00:33:10;2.90;;;2.07;;
2480;SDS011;57396;48.742;9.128;2023-07-20T00:35:36;5.97;;;2.23;;
2480;SDS011;57396;48.742;9.128;2023-07-20T00:38:03;2.70;;;2.50;;
2480;SDS011;57396;48.742;9.128;2023-07-20T00:40:28;3.73;;;2.50;;
2480;SDS011;57396;48.742;9.128;2023-07-20T00:42:54;3.73;;;1.97;;
2480;SDS011;57396;48.742;9.128;2023-07-20T00:45:19;3.00;;;2.00;;
2480;SDS011;57396;48.742;9.128;2023-07-20T00:47:45;2.33;;;1.90;;
2480;SDS011;57396;48.742;9.128;2023-07-20T00:50:11;1.93;;;1.83;;
2480;SDS011;57396;48.742;9.128;2023-07-20T00:52:37;2.70;;;2.00;;
2480;SDS011;57396;48.742;9.128;2023-07-20T00:55:04;6.33;;;2.23;;
2480;SDS011;57396;48.742;9.128;2023-07-20T00:57:31;2.10;;;1.90;;
2480;SDS011;57396;48.742;9.128;2023-07-20T00:59:56;3.13;;;2.20;;
2480;SDS011;57396;48.742;9.128;2023-07-20T01:02:22;3.97;;;2.40;;
2480;SDS011;57396;48.742;9.128;2023-07-20T01:04:47;7.67;;;2.13;;
2480;SDS011;57396;48.742;9.128;2023-07-20T01:13:02;3.73;;;2.00;;
2480;SDS011;57396;48.742;9.128;2023-07-20T01:15:28;2.13;;;1.90;;
2480;SDS011;57396;48.742;9.128;2023-07-20T01:17:54;5.37;;;2.30;;
2480;SDS011;57396;48.742;9.128;2023-07-20T01:20:20;3.70;;;2.10;;
2480;SDS011;57396;48.742;9.128;2023-07-20T01:31:33;2.47;;;2.27;;
2480;SDS011;57396;48.742;9.128;2023-07-20T01:34:03;3.90;;;2.17;;
2480;SDS011;57396;48.742;9.128;2023-07-20T01:36:30;4.73;;;2.40;;
2480;SDS011;57396;48.742;9.128;2023-07-20T01:38:59;4.30;;;2.20;;
2480;SDS011;57396;48.742;9.128;2023-07-20T01:41:25;2.70;;;2.17;;
2480;SDS011;57396;48.742;9.128;2023-07-20T01:43:51;4.03;;;2.10;;
2480;SDS011;57396;48.742;9.128;2023-07-20T01:46:16;4.17;;;2.27;;
2480;SDS011;57396;48.742;9.128;2023-07-20T01:48:42;2.13;;;1.90;;
2480;SDS011;57396;48.742;9.128;2023-07-20T01:51:07;2.50;;;2.30;;
2480;SDS011;57396;48.742;9.128;2023-07-20T01:53:33;2.17;;;1.97;;
2480;SDS011;57396;48.742;9.128;2023-07-20T01:55:59;3.33;;;2.40;;
2480;SDS011;57396;48.742;9.128;2023-07-20T01:58:24;2.60;;;2.17;;
2480;SDS011;57396;48.742;9.128;2023-07-20T02:00:50;2.60;;;2.40;;
2480;SDS011;57396;48.742;9.128;2023-07-20T02:03:15;2.70;;;2.50;;
2480;SDS011;57396;48.742;9.128;2023-07-20T02:05:43;3.77;;;2.20;;
2480;SDS011;57396;48.742;9.128;2023-07-20T02:08:09;2.67;;;2.20;;
2480;SDS011;57396;48.742;9.128;2023-07-20T02:10:35;2.77;;;2.00;;
2480;SDS011;57396;48.742;9.128;2023-07-20T02:13:00;3.63;;;2.50;;
2480;SDS011;57396;48.742;9.128;2023-07-20T02:15:26;3.17;;;2.20;;
2480;SDS011;57396;48.742;9.128;2023-07-20T02:17:52;3.00;;;2.30;;
2480;SDS011;57396;48.742;9.128;2023-07-20T02:20:18;4.77;;;2.47;;
2480;SDS011;57396;48.742;9.128;2023-07-20T02:22:44;4.83;;;2.53;;
2480;SDS011;57396;48.742;9.128;2023-07-20T02:25:10;3.30;;;2.33;;
2480;SDS011;57396;48.742;9.128;2023-07-20T02:27:36;6.83;;;2.30;;
2480;SDS011;57396;48.742;9.128;2023-07-20T02:30:02;2.77;;;2.53;;
2480;SDS011;57396;48.742;9.128;2023-07-20T02:32:28;4.93;;;2.27;;
2480;SDS011;57396;48.742;9.128;2023-07-20T02:34:54;2.60;;;2.30;;
2480;SDS011;57396;48.742;9.128;2023-07-20T02:37:20;2.70;;;2.10;;
2480;SDS011;57396;48.742;9.128;2023-07-20T02:39:45;7.63;;;2.97;;
2480;SDS011;57396;48.742;9.128;2023-07-20T02:42:11;4.40;;;2.50;;
2480;SDS011;57396;48.742;9.128;2023-07-20T02:44:36;3.70;;;2.30;;
2480;SDS011;57396;48.742;9.128;2023-07-20T02:47:01;6.40;;;2.23;;
2480;SDS011;57396;48.742;9.128;2023-07-20T02:49:27;2.60;;;2.40;;
2480;SDS011;57396;48.742;9.128;2023-07-20T02:51:53;4.57;;;2.33;;
2480;SDS011;57396;48.742;9.128;2023-07-20T02:54:19;3.97;;;2.43;;
2480;SDS011;57396;48.742;9.128;2023-07-20T02:56:44;2.50;;;2.10;;
2480;SDS011;57396;48.742;9.128;2023-07-20T02:59:10;3.20;;;2.40;;
2480;SDS011;57396;48.742;9.128;2023-07-20T03:01:35;6.63;;;2.67;;
2480;SDS011;57396;48.742;9.128;2023-07-20T03:04:01;6.60;;;2.10;;
2480;SDS011;57396;48.742;9.128;2023-07-20T03:06:27;3.50;;;2.20;;
2480;SDS011;57396;48.742;9.128;2023-07-20T03:08:52;4.60;;;2.37;;
2480;SDS011;57396;48.742;9.128;2023-07-20T03:11:19;5.20;;;2.83;;
2480;SDS011;57396;48.742;9.128;2023-07-20T03:13:46;2.50;;;2.30;;
2480;SDS011;57396;48.742;9.128;2023-07-20T03:16:12;2.90;;;2.60;;
2480;SDS011;57396;48.742;9.128;2023-07-20T03:18:40;4.00;;;2.20;;
2480;SDS011;57396;48.742;9.128;2023-07-20T03:21:06;2.90;;;2.57;;
2480;SDS011;57396;48.742;9.128;2023-07-20T03:23:33;3.27;;;2.50;;
2480;SDS011;57396;48.742;9.128;2023-07-20T03:25:58;2.87;;;2.57;;
2480;SDS011;57396;48.742;9.128;2023-07-20T03:28:24;3.17;;;2.47;;
2480;SDS011;57396;48.742;9.128;2023-07-20T03:30:53;4.50;;;2.53;;
2480;SDS011;57396;48.742;9.128;2023-07-20T03:33:21;3.07;;;2.20;;
2480;SDS011;57396;48.742;9.128;2023-07-20T03:35:47;4.90;;;2.60;;
2480;SDS011;57396;48.742;9.128;2023-07-20T03:38:12;4.13;;;2.47;;
2480;SDS011;57396;48.742;9.128;2023-07-20T03:40:38;2.50;;;2.30;;
2480;SDS011;57396;48.742;9.128;2023-07-20T03:43:03;3.10;;;2.57;;
2480;SDS011;57396;48.742;9.128;2023-07-20T03:45:29;3.53;;;2.60;;
2480;SDS011;57396;48.742;9.128;2023-07-20T03:47:54;3.00;;;2.53;;
2480;SDS011;57396;48.742;9.128;2023-07-20T03:50:19;4.47;;;2.87;;
2480;SDS011;57396;48.742;9.128;2023-07-20T03:52:45;8.33;;;2.70;;
2480;SDS011;57396;48.742;9.128;2023-07-20T03:55:10;2.80;;;2.20;;
2480;SDS011;57396;48.742;9.128;2023-07-20T03:57:36;2.60;;;2.40;;
2480;SDS011;57396;48.742;9.128;2023-07-20T04:00:02;4.90;;;2.23;;
2480;SDS011;57396;48.742;9.128;2023-07-20T04:02:29;3.93;;;2.60;;
2480;SDS011;57396;48.742;9.128;2023-07-20T04:04:55;3.97;;;2.50;;
2480;SDS011;57396;48.742;9.128;2023-07-20T04:07:20;3.33;;;2.23;;
2480;SDS011;57396;48.742;9.128;2023-07-20T04:09:46;3.60;;;2.83;;
2480;SDS011;57396;48.742;9.128;2023-07-20T04:12:11;6.93;;;2.20;;
2480;SDS011;57396;48.742;9.128;2023-07-20T04:14:37;3.23;;;2.40;;
2480;SDS011;57396;48.742;9.128;2023-07-20T04:17:02;4.17;;;2.60;;
2480;SDS011;57396;48.742;9.128;2023-07-20T04:19:28;4.60;;;2.63;;
2480;SDS011;57396;48.742;9.128;2023-07-20T04:21:54;5.23;;;2.93;;
2480;SDS011;57396;48.742;9.128;2023-07-20T04:24:19;6.50;;;2.60;;
2480;SDS011;57396;48.742;9.128;2023-07-20T04:26:45;4.43;;;2.20;;
2480;SDS011;57396;48.742;9.128;2023-07-20T04:29:10;2.57;;;2.20;;
2480;SDS011;57396;48.742;9.128;2023-07-20T04:31:36;3.80;;;2.23;;
2480;SDS011;57396;48.742;9.128;2023-07-20T04:34:01;2.50;;;2.30;;
2480;SDS011;57396;48.742;9.128;2023-07-20T04:36:27;3.23;;;2.33;;
2480;SDS011;57396;48.742;9.128;2023-07-20T04:38:52;4.17;;;2.60;;
2480;SDS011;57396;48.742;9.128;2023-07-20T04:41:18;4.50;;;2.40;;
2480;SDS011;57396;48.742;9.128;2023-07-20T04:43:43;5.80;;;2.20;;
2480;SDS011;57396;48.742;9.128;2023-07-20T04:46:12;5.13;;;2.60;;
2480;SDS011;57396;48.742;9.128;2023-07-20T04:48:37;3.43;;;2.30;;
2480;SDS011;57396;48.742;9.128;2023-07-20T04:51:03;3.00;;;2.33;;
2480;SDS011;57396;48.742;9.128;2023-07-20T04:53:29;2.70;;;2.20;;
2480;SDS011;57396;48.742;9.128;2023-07-20T04:55:54;3.00;;;2.57;;
2480;SDS011;57396;48.742;9.128;2023-07-20T04:58:20;4.27;;;2.40;;
2480;SDS011;57396;48.742;9.128;2023-07-20T05:00:47;3.70;;;2.23;;
2480;SDS011;57396;48.742;9.128;2023-07-20T05:03:13;2.53;;;2.33;;
2480;SDS011;57396;48.742;9.128;2023-07-20T05:05:38;2.60;;;2.40;;
2480;SDS011;57396;48.742;9.128;2023-07-20T05:08:04;6.17;;;2.30;;
2480;SDS011;57396;48.742;9.128;2023-07-20T05:10:29;2.43;;;2.17;;
2480;SDS011;57396;48.742;9.128;2023-07-20T05:12:55;4.80;;;2.30;;
2480;SDS011;57396;48.742;9.128;2023-07-20T05:15:20;2.50;;;2.30;;
2480;SDS011;57396;48.742;9.128;2023-07-20T05:17:46;2.80;;;2.03;;
2480;SDS011;57396;48.742;9.128;2023-07-20T05:20:13;3.10;;;2.47;;
2480;SDS011;57396;48.742;9.128;2023-07-20T05:22:39;3.87;;;2.30;;
2480;SDS011;57396;48.742;9.128;2023-07-20T05:25:08;4.93;;;2.20;;
2480;SDS011;57396;48.742;9.128;2023-07-20T05:27:34;2.73;;;2.30;;
2480;SDS011;57396;48.742;9.128;2023-07-20T05:30:01;3.63;;;2.00;;
2480;SDS011;57396;48.742;9.128;2023-07-20T05:32:26;2.60;;;1.90;;
2480;SDS011;57396;48.742;9.128;2023-07-20T05:34:54;7.20;;;2.30;;
2480;SDS011;57396;48.742;9.128;2023-07-20T05:37:20;4.77;;;2.60;;
2480;SDS011;57396;48.742;9.128;2023-07-20T05:39:46;19.77;;;2.10;;
2480;SDS011;57396;48.742;9.128;2023-07-20T05:42:12;6.67;;;2.30;;
2480;SDS011;57396;48.742;9.128;2023-07-20T05:44:37;4.60;;;2.10;;
2480;SDS011;57396;48.742;9.128;2023-07-20T05:47:03;4.27;;;2.20;;
2480;SDS011;57396;48.742;9.128;2023-07-20T05:49:29;4.30;;;2.27;;
2480;SDS011;57396;48.742;9.128;2023-07-20T05:51:55;7.27;;;2.40;;
2480;SDS011;57396;48.742;9.128;2023-07-20T05:54:21;4.20;;;2.17;;
2480;SDS011;57396;48.742;9.128;2023-07-20T05:56:46;6.57;;;2.47;;
2480;SDS011;57396;48.742;9.128;2023-07-20T05:59:12;4.93;;;2.20;;
2480;SDS011;57396;48.742;9.128;2023-07-20T06:01:38;5.10;;;2.70;;
2480;SDS011;57396;48.742;9.128;2023-07-20T06:04:03;5.10;;;2.30;;
2480;SDS011;57396;48.742;9.128;2023-07-20T06:06:29;4.03;;;2.20;;
2480;SDS011;57396;48.742;9.128;2023-07-20T06:08:54;3.30;;;2.40;;
2480;SDS011;57396;48.742;9.128;2023-07-20T06:11:20;3.20;;;2.37;;
2480;SDS011;57396;48.742;9.128;2023-07-20T06:13:45;8.63;;;2.30;;
2480;SDS011;57396;48.742;9.128;2023-07-20T06:16:11;4.33;;;2.30;;
2480;SDS011;57396;48.742;9.128;2023-07-20T06:18:36;4.20;;;2.40;;
2480;SDS011;57396;48.742;9.128;2023-07-20T06:21:02;3.83;;;1.80;;
2480;SDS011;57396;48.742;9.128;2023-07-20T06:23:27;3.03;;;2.67;;
2480;SDS011;57396;48.742;9.128;2023-07-20T06:25:52;3.87;;;2.20;;
2480;SDS011;57396;48.742;9.128;2023-07-20T06:28:18;5.77;;;2.40;;
2480;SDS011;57396;48.742;9.128;2023-07-20T06:30:43;7.03;;;2.40;;
2480;SDS011;57396;48.742;9.128;2023-07-20T06:33:09;4.27;;;2.40;;
2480;SDS011;57396;48.742;9.128;2023-07-20T06:35:34;3.50;;;2.00;;
2480;SDS011;57396;48.742;9.128;2023-07-20T06:38:01;3.03;;;2.10;;
2480;SDS011;57396;48.742;9.128;2023-07-20T06:40:29;3.10;;;2.00;;
2480;SDS011;57396;48.742;9.128;2023-07-20T06:42:55;3.60;;;2.07;;
2480;SDS011;57396;48.742;9.128;2023-07-20T06:45:20;3.77;;;2.37;;
2480;SDS011;57396;48.742;9.128;2023-07-20T06:47:46;4.73;;;2.20;;
2480;SDS011;57396;48.742;9.128;2023-07-20T06:50:11;2.97;;;2.50;;
2480;SDS011;57396;48.742;9.128;2023-07-20T06:52:37;2.67;;;2.10;;
2480;SDS011;57396;48.742;9.128;2023-07-20T06:55:03;2.93;;;1.70;;
2480;SDS011;57396;48.742;9.128;2023-07-20T06:57:28;3.33;;;2.30;;
2480;SDS011;57396;48.742;9.128;2023-07-20T06:59:54;10.50;;;2.37;;
2480;SDS011;57396;48.742;9.128;2023-07-20T07:02:19;3.90;;;2.00;;
2480;SDS011;57396;48.742;9.128;2023-07-20T07:04:45;5.33;;;2.27;;
2480;SDS011;57396;48.742;9.128;2023-07-20T07:07:13;2.30;;;2.10;;
2480;SDS011;57396;48.742;9.128;2023-07-20T07:09:39;5.87;;;1.83;;
2480;SDS011;57396;48.742;9.128;2023-07-20T07:12:05;4.37;;;2.20;;
2480;SDS011;57396;48.742;9.128;2023-07-20T07:14:31;2.90;;;2.10;;
2480;SDS011;57396;48.742;9.128;2023-07-20T07:16:56;3.33;;;2.07;;
2480;SDS011;57396;48.742;9.128;2023-07-20T07:19:22;6.13;;;2.10;;
2480;SDS011;57396;48.742;9.128;2023-07-20T07:21:47;6.20;;;2.30;;
2480;SDS011;57396;48.742;9.128;2023-07-20T07:24:12;4.90;;;2.47;;
2480;SDS011;57396;48.742;9.128;2023-07-20T07:26:38;5.57;;;2.17;;
2480;SDS011;57396;48.742;9.128;2023-07-20T07:29:04;3.70;;;2.10;;
2480;SDS011;57396;48.742;9.128;2023-07-20T07:31:29;6.27;;;2.50;;
2480;SDS011;57396;48.742;9.128;2023-07-20T07:33:55;5.07;;;2.00;;
2480;SDS011;57396;48.742;9.128;2023-07-20T07:36:21;3.00;;;2.43;;
2480;SDS011;57396;48.742;9.128;2023-07-20T07:38:46;5.83;;;2.20;;
2480;SDS011;57396;48.742;9.128;2023-07-20T07:41:12;9.20;;;2.03;;
2480;SDS011;57396;48.742;9.128;2023-07-20T07:43:38;5.33;;;1.80;;
2480;SDS011;57396;48.742;9.128;2023-07-20T07:46:04;3.47;;;2.30;;
2480;SDS011;57396;48.742;9.128;2023-07-20T07:48:29;3.50;;;1.87;;
2480;SDS011;57396;48.742;9.128;2023-07-20T07:50:55;9.07;;;2.53;;
2480;SDS011;57396;48.742;9.128;2023-07-20T07:53:20;5.37;;;2.27;;
2480;SDS011;57396;48.742;9.128;2023-07-20T07:55:49;4.43;;;2.60;;
2480;SDS011;57396;48.742;9.128;2023-07-20T07:58:14;4.43;;;2.47;;
2480;SDS011;57396;48.742;9.128;2023-07-20T08:00:40;5.63;;;2.23;;
2480;SDS011;57396;48.742;9.128;2023-07-20T08:03:06;2.70;;;2.30;;
2480;SDS011;57396;48.742;9.128;2023-07-20T08:05:31;2.60;;;2.23;;
2480;SDS011;57396;48.742;9.128;2023-07-20T08:07:57;4.90;;;2.30;;
2480;SDS011;57396;48.742;9.128;2023-07-20T08:10:22;4.23;;;1.70;;
2480;SDS011;57396;48.742;9.128;2023-07-20T08:12:48;3.50;;;2.60;;
2480;SDS011;57396;48.742;9.128;2023-07-20T08:15:13;6.73;;;2.43;;
2480;SDS011;57396;48.742;9.128;2023-07-20T08:17:40;2.10;;;1.87;;
2480;SDS011;57396;48.742;9.128;2023-07-20T08:20:07;2.40;;;1.70;;
2480;SDS011;57396;48.742;9.128;2023-07-20T08:22:34;7.03;;;2.40;;
2480;SDS011;57396;48.742;9.128;2023-07-20T08:25:09;3.33;;;2.27;;
2480;SDS011;57396;48.742;9.128;2023-07-20T08:27:35;4.07;;;2.13;;
2480;SDS011;57396;48.742;9.128;2023-07-20T08:30:01;3.83;;;2.00;;
2480;SDS011;57396;48.742;9.128;2023-07-20T08:32:27;11.03;;;2.13;;
2480;SDS011;57396;48.742;9.128;2023-07-20T08:34:53;4.23;;;1.90;;
2480;SDS011;57396;48.742;9.128;2023-07-20T08:37:19;2.90;;;2.13;;
2480;SDS011;57396;48.742;9.128;2023-07-20T08:39:44;4.33;;;1.90;;
2480;SDS011;57396;48.742;9.128;2023-07-20T08:42:10;2.70;;;2.33;;
2480;SDS011;57396;48.742;9.128;2023-07-20T08:44:36;4.20;;;1.77;;
2480;SDS011;57396;48.742;9.128;2023-07-20T08:47:03;7.03;;;2.23;;
2480;SDS011;57396;48.742;9.128;2023-07-20T08:49:31;4.63;;;1.90;;
2480;SDS011;57396;48.742;9.128;2023-07-20T08:51:56;2.10;;;1.90;;
2480;SDS011;57396;48.742;9.128;2023-07-20T08:54:23;3.63;;;2.13;;
2480;SDS011;57396;48.742;9.128;2023-07-20T08:56:49;3.40;;;2.03;;
2480;SDS011;57396;48.742;9.128;2023-07-20T08:59:16;4.73;;;2.30;;
2480;SDS011;57396;48.742;9.128;2023-07-20T09:01:42;3.20;;;2.00;;
2480;SDS011;57396;48.742;9.128;2023-07-20T09:04:09;3.03;;;2.03;;
2480;SDS011;57396;48.742;9.128;2023-07-20T09:06:34;3.00;;;1.90;;
2480;SDS011;57396;48.742;9.128;2023-07-20T09:09:00;3.87;;;2.10;;
2480;SDS011;57396;48.742;9.128;2023-07-20T09:11:25;4.17;;;2.30;;
2480;SDS011;57396;48.742;9.128;2023-07-20T09:14:07;2.00;;;1.70;;
2480;SDS011;57396;48.742;9.128;2023-07-20T09:16:46;3.23;;;1.90;;
2480;SDS011;57396;48.742;9.128;2023-07-20T09:19:14;2.80;;;2.10;;
2480;SDS011;57396;48.742;9.128;2023-07-20T09:21:40;3.27;;;1.60;;
2480;SDS011;57396;48.742;9.128;2023-07-20T09:24:05;1.67;;;1.57;;
2480;SDS011;57396;48.742;9.128;2023-07-20T09:26:31;3.10;;;1.80;;
2480;SDS011;57396;48.742;9.128;2023-07-20T09:29:06;2.40;;;1.70;;
2480;SDS011;57396;48.742;9.128;2023-07-20T09:31:32;9.23;;;1.70;;
2480;SDS011;57396;48.742;9.128;2023-07-20T09:33:58;8.43;;;2.30;;
2480;SDS011;57396;48.742;9.128;2023-07-20T09:36:23;5.13;;;1.90;;
2480;SDS011;57396;48.742;9.128;2023-07-20T09:38:49;3.40;;;1.90;;
2480;SDS011;57396;48.742;9.128;2023-07-20T09:41:14;4.27;;;1.80;;
2480;SDS011;57396;48.742;9.128;2023-07-20T09:43:40;4.70;;;1.90;;
2480;SDS011;57396;48.742;9.128;2023-07-20T09:46:06;6.30;;;2.07;;
2480;SDS011;57396;48.742;9.128;2023-07-20T09:48:32;2.30;;;1.87;;
2480;SDS011;57396;48.742;9.128;2023-07-20T09:50:57;2.20;;;1.57;;
2480;SDS011;57396;48.742;9.128;2023-07-20T09:53:24;3.73;;;1.73;;
2480;SDS011;57396;48.742;9.128;2023-07-20T09:55:50;4.87;;;1.83;;
2480;SDS011;57396;48.742;9.128;2023-07-20T09:58:17;4.63;;;1.70;;
2480;SDS011;57396;48.742;9.128;2023-07-20T10:00:43;6.80;;;1.90;;
2480;SDS011;57396;48.742;9.128;2023-07-20T10:03:19;2.70;;;1.60;;
2480;SDS011;57396;48.742;9.128;2023-07-20T10:05:52;2.53;;;1.57;;
2480;SDS011;57396;48.742;9.128;2023-07-20T10:08:20;3.50;;;1.70;;
2480;SDS011;57396;48.742;9.128;2023-07-20T10:10:49;2.53;;;1.77;;
2480;SDS011;57396;48.742;9.128;2023-07-20T10:13:18;2.50;;;1.50;;
2480;SDS011;57396;48.742;9.128;2023-07-20T10:15:59;1.83;;;1.67;;
2480;SDS011;57396;48.742;9.128;2023-07-20T10:18:34;3.70;;;1.80;;
2480;SDS011;57396;48.742;9.128;2023-07-20T10:21:35;2.27;;;1.73;;
2480;SDS011;57396;48.742;9.128;2023-07-20T10:24:05;3.10;;;2.00;;
2480;SDS011;57396;48.742;9.128;2023-07-20T10:26:32;3.13;;;1.50;;
2480;SDS011;57396;48.742;9.128;2023-07-20T10:28:58;1.93;;;1.60;;
2480;SDS011;57396;48.742;9.128;2023-07-20T10:31:24;2.50;;;1.63;;
2480;SDS011;57396;48.742;9.128;2023-07-20T10:33:50;3.07;;;1.43;;
2480;SDS011;57396;48.742;9.128;2023-07-20T10:36:20;4.20;;;1.53;;
2480;SDS011;57396;48.742;9.128;2023-07-20T10:38:53;2.70;;;1.73;;
2480;SDS011;57396;48.742;9.128;2023-07-20T10:43:46;4.30;;;1.70;;
2480;SDS011;57396;48.742;9.128;2023-07-20T10:46:12;1.60;;;1.30;;
2480;SDS011;57396;48.742;9.128;2023-07-20T10:48:58;3.13;;;2.03;;
2480;SDS011;57396;48.742;9.128;2023-07-20T10:51:27;4.40;;;1.80;;
2480;SDS011;57396;48.742;9.128;2023-07-20T10:53:54;1.67;;;1.50;;
2480;SDS011;57396;48.742;9.128;2023-07-20T10:56:24;1.50;;;1.40;;
2480;SDS011;57396;48.742;9.128;2023-07-20T10:58:55;2.17;;;1.30;;
2480;SDS011;57396;48.742;9.128;2023-07-20T11:01:27;5.53;;;1.30;;
2480;SDS011;57396;48.742;9.128;2023-07-20T11:03:56;2.80;;;1.60;;
2480;SDS011;57396;48.742;9.128;2023-07-20T11:09:10;1.90;;;1.20;;
2480;SDS011;57396;48.742;9.128;2023-07-20T11:11:37;2.40;;;1.43;;
2480;SDS011;57396;48.742;9.128;2023-07-20T11:16:49;1.97;;;1.33;;
2480;SDS011;57396;48.742;9.128;2023-07-20T11:19:19;2.17;;;1.20;;
2480;SDS011;57396;48.742;9.128;2023-07-20T11:21:52;2.80;;;1.20;;
2480;SDS011;57396;48.742;9.128;2023-07-20T11:24:18;1.60;;;1.50;;
2480;SDS011;57396;48.742;9.128;2023-07-20T11:26:48;8.30;;;1.33;;
2480;SDS011;57396;48.742;9.128;2023-07-20T11:29:15;2.40;;;1.40;;
2480;SDS011;57396;48.742;9.128;2023-07-20T11:31:42;1.50;;;1.40;;
2480;SDS011;57396;48.742;9.128;2023-07-20T11:34:16;14.10;;;1.47;;
2480;SDS011;57396;48.742;9.128;2023-07-20T11:36:43;3.00;;;1.60;;
2480;SDS011;57396;48.742;9.128;2023-07-20T11:39:10;1.83;;;1.20;;
2480;SDS011;57396;48.742;9.128;2023-07-20T11:41:37;1.40;;;1.30;;
2480;SDS011;57396;48.742;9.128;2023-07-20T11:44:04;1.40;;;1.10;;
2480;SDS011;57396;48.742;9.128;2023-07-20T11:46:31;1.70;;;1.47;;
2480;SDS011;57396;48.742;9.128;2023-07-20T11:49:00;2.20;;;1.60;;
2480;SDS011;57396;48.742;9.128;2023-07-20T11:51:28;2.37;;;1.43;;
2480;SDS011;57396;48.742;9.128;2023-07-20T11:53:54;5.67;;;1.57;;
2480;SDS011;57396;48.742;9.128;2023-07-20T11:56:20;3.60;;;1.40;;
2480;SDS011;57396;48.742;9.128;2023-07-20T11:58:46;1.70;;;1.43;;
2480;SDS011;57396;48.742;9.128;2023-07-20T12:01:12;1.60;;;1.23;;
2480;SDS011;57396;48.742;9.128;2023-07-20T12:03:38;4.50;;;1.47;;
2480;SDS011;57396;48.742;9.128;2023-07-20T12:06:07;1.57;;;1.23;;
2480;SDS011;57396;48.742;9.128;2023-07-20T12:08:33;1.40;;;1.30;;
2480;SDS011;57396;48.742;9.128;2023-07-20T12:10:59;1.10;;;0.93;;
2480;SDS011;57396;48.742;9.128;2023-07-20T12:13:34;1.33;;;1.20;;
2480;SDS011;57396;48.742;9.128;2023-07-20T12:16:06;1.50;;;1.20;;
2480;SDS011;57396;48.742;9.128;2023-07-20T12:18:37;1.50;;;1.30;;
2480;SDS011;57396;48.742;9.128;2023-07-20T12:21:02;3.90;;;1.30;;
2480;SDS011;57396;48.742;9.128;2023-07-20T12:23:34;3.00;;;1.37;;
2480;SDS011;57396;48.742;9.128;2023-07-20T12:26:01;1.50;;;1.07;;
2480;SDS011;57396;48.742;9.128;2023-07-20T12:28:26;2.50;;;1.30;;
2480;SDS011;57396;48.742;9.128;2023-07-20T12:30:52;3.13;;;1.40;;
2480;SDS011;57396;48.742;9.128;2023-07-20T12:33:21;1.80;;;1.20;;
2480;SDS011;57396;48.742;9.128;2023-07-20T12:35:48;1.50;;;1.40;;
2480;SDS011;57396;48.742;9.128;2023-07-20T12:38:14;3.20;;;1.53;;
2480;SDS011;57396;48.742;9.128;2023-07-20T12:40:40;1.30;;;1.17;;
2480;SDS011;57396;48.742;9.128;2023-07-20T12:43:06;2.80;;;1.20;;
2480;SDS011;57396;48.742;9.128;2023-07-20T12:45:32;3.13;;;1.23;;
2480;SDS011;57396;48.742;9.128;2023-07-20T12:47:58;2.17;;;1.60;;
2480;SDS011;57396;48.742;9.128;2023-07-20T12:50:23;4.50;;;1.40;;
2480;SDS011;57396;48.742;9.128;2023-07-20T12:52:49;1.70;;;1.23;;
2480;SDS011;57396;48.742;9.128;2023-07-20T12:55:14;2.43;;;1.53;;
2480;SDS011;57396;48.742;9.128;2023-07-20T12:57:40;5.83;;;1.30;;
2480;SDS011;57396;48.742;9.128;2023-07-20T13:00:06;3.63;;;1.60;;
2480;SDS011;57396;48.742;9.128;2023-07-20T13:02:34;2.37;;;1.13;;
2480;SDS011;57396;48.742;9.128;2023-07-20T13:05:00;3.63;;;1.37;;
2480;SDS011;57396;48.742;9.128;2023-07-20T13:07:29;2.47;;;1.30;;
2480;SDS011;57396;48.742;9.128;2023-07-20T13:09:55;2.77;;;1.30;;
2480;SDS011;57396;48.742;9.128;2023-07-20T13:12:21;3.03;;;1.20;;
2480;SDS011;57396;48.742;9.128;2023-07-20T13:14:46;2.07;;;1.43;;
2480;SDS011;57396;48.742;9.128;2023-07-20T13:17:12;1.67;;;1.20;;
2480;SDS011;57396;48.742;9.128;2023-07-20T13:19:37;2.30;;;1.23;;
2480;SDS011;57396;48.742;9.128;2023-07-20T13:22:03;1.73;;;1.33;;
2480;SDS011;57396;48.742;9.128;2023-07-20T13:24:29;3.80;;;1.37;;
2480;SDS011;57396;48.742;9.128;2023-07-20T13:26:54;1.50;;;1.20;;
2480;SDS011;57396;48.742;9.128;2023-07-20T13:29:20;3.53;;;1.40;;
2480;SDS011;57396;48.742;9.128;2023-07-20T13:31:45;1.80;;;1.20;;
2480;SDS011;57396;48.742;9.128;2023-07-20T13:34:11;1.40;;;1.23;;
2480;SDS011;57396;48.742;9.128;2023-07-20T13:36:36;2.90;;;1.30;;
2480;SDS011;57396;48.742;9.128;2023-07-20T13:39:02;1.87;;;1.17;;
2480;SDS011;57396;48.742;9.128;2023-07-20T13:41:29;2.60;;;1.30;;
2480;SDS011;57396;48.742;9.128;2023-07-20T13:43:57;7.03;;;1.20;;
2480;SDS011;57396;48.742;9.128;2023-07-20T13:46:22;1.70;;;1.33;;
2480;SDS011;57396;48.742;9.128;2023-07-20T13:48:48;4.53;;;1.20;;
2480;SDS011;57396;48.742;9.128;2023-07-20T13:51:13;2.13;;;1.33;;
2480;SDS011;57396;48.742;9.128;2023-07-20T13:53:39;2.03;;;1.27;;
2480;SDS011;57396;48.742;9.128;2023-07-20T13:56:05;1.43;;;1.07;;
2480;SDS011;57396;48.742;9.128;2023-07-20T13:58:32;1.90;;;1.20;;
2480;SDS011;57396;48.742;9.128;2023-07-20T14:00:57;1.77;;;1.30;;
2480;SDS011;57396;48.742;9.128;2023-07-20T14:03:23;2.37;;;1.33;;
2480;SDS011;57396;48.742;9.128;2023-07-20T14:05:49;2.43;;;1.30;;
2480;SDS011;57396;48.742;9.128;2023-07-20T14:08:15;1.67;;;1.20;;
2480;SDS011;57396;48.742;9.128;2023-07-20T14:10:40;1.87;;;1.10;;
2480;SDS011;57396;48.742;9.128;2023-07-20T14:13:06;4.90;;;1.50;;
2480;SDS011;57396;48.742;9.128;2023-07-20T14:15:33;1.63;;;1.10;;
2480;SDS011;57396;48.742;9.128;2023-07-20T14:17:59;1.73;;;1.30;;
2480;SDS011;57396;48.742;9.128;2023-07-20T14:20:25;3.37;;;1.20;;
2480;SDS011;57396;48.742;9.128;2023-07-20T14:22:50;1.23;;;1.13;;
2480;SDS011;57396;48.742;9.128;2023-07-20T14:25:16;2.90;;;1.60;;
2480;SDS011;57396;48.742;9.128;2023-07-20T14:27:41;1.90;;;1.23;;
2480;SDS011;57396;48.742;9.128;2023-07-20T14:30:07;1.20;;;1.00;;
2480;SDS011;57396;48.742;9.128;2023-07-20T14:32:34;2.40;;;1.30;;
2480;SDS011;57396;48.742;9.128;2023-07-20T14:34:59;1.20;;;1.10;;
2480;SDS011;57396;48.742;9.128;2023-07-20T14:37:25;7.77;;;1.23;;
2480;SDS011;57396;48.742;9.128;2023-07-20T14:39:50;2.90;;;1.20;;
2480;SDS011;57396;48.742;9.128;2023-07-20T14:42:16;2.27;;;1.10;;
2480;SDS011;57396;48.742;9.128;2023-07-20T14:44:41;2.60;;;1.20;;
2480;SDS011;57396;48.742;9.128;2023-07-20T14:47:06;1.70;;;1.50;;
2480;SDS011;57396;48.742;9.128;2023-07-20T14:49:32;1.67;;;1.30;;
2480;SDS011;57396;48.742;9.128;2023-07-20T14:51:58;2.13;;;1.10;;
2480;SDS011;57396;48.742;9.128;2023-07-20T14:54:23;2.47;;;1.40;;
2480;SDS011;57396;48.742;9.128;2023-07-20T14:56:49;1.70;;;1.20;;
2480;SDS011;57396;48.742;9.128;2023-07-20T14:59:17;2.27;;;1.30;;
2480;SDS011;57396;48.742;9.128;2023-07-20T15:01:43;1.47;;;1.30;;
2480;SDS011;57396;48.742;9.128;2023-07-20T15:04:10;1.93;;;1.47;;
2480;SDS011;57396;48.742;9.128;2023-07-20T15:06:36;5.53;;;1.60;;
2480;SDS011;57396;48.742;9.128;2023-07-20T15:09:01;1.67;;;1.40;;
2480;SDS011;57396;48.742;9.128;2023-07-20T15:11:26;4.40;;;1.30;;
2480;SDS011;57396;48.742;9.128;2023-07-20T15:13:52;2.87;;;1.30;;
2480;SDS011;57396;48.742;9.128;2023-07-20T15:16:17;1.30;;;1.20;;
2480;SDS011;57396;48.742;9.128;2023-07-20T15:18:43;1.40;;;1.17;;